createdAt,value
2019-02-19T00:00:36.962Z,64.94
2019-02-19T00:03:03.469Z,64.87
2019-02-19T00:05:29.435Z,64.85
2019-02-19T00:07:55.524Z,64.96
2019-02-19T00:10:21.778Z,65.16
2019-02-19T00:12:47.792Z,65.15
2019-02-19T00:15:13.846Z,65.20
2019-02-19T00:17:39.918Z,65.26
2019-02-19T00:20:06.010Z,65.44
2019-02-19T00:22:32.046Z,65.18
2019-02-19T00:24:58.058Z,64.88
2019-02-19T00:27:24.061Z,64.89
2019-02-19T00:29:50.113Z,65.31
2019-02-19T00:32:15.987Z,65.15
2019-02-19T00:34:42.008Z,64.97
2019-02-19T00:37:08.331Z,64.82
2019-02-19T00:39:34.430Z,64.71
2019-02-19T00:42:00.530Z,64.15
2019-02-19T00:44:26.404Z,63.83
2019-02-19T00:46:52.399Z,64.16
2019-02-19T00:49:18.436Z,64.24
2019-02-19T00:51:44.323Z,64.41
2019-02-19T00:54:10.247Z,64.28
2019-02-19T00:56:36.232Z,64.53
2019-02-19T00:59:02.221Z,64.69
2019-02-19T01:01:28.238Z,64.56
2019-02-19T01:03:54.149Z,64.63
2019-02-19T01:06:20.246Z,64.69
2019-02-19T01:08:46.190Z,64.90
2019-02-19T01:11:12.149Z,64.81
2019-02-19T01:13:38.143Z,65.18
2019-02-19T01:16:04.288Z,65.69
2019-02-19T01:18:33.624Z,65.69
2019-02-19T01:20:59.644Z,65.61
2019-02-19T01:23:25.563Z,65.19
2019-02-19T01:25:51.523Z,65.46
2019-02-19T01:28:17.415Z,65.49
2019-02-19T01:30:43.426Z,65.70
2019-02-19T01:33:09.333Z,65.99
2019-02-19T01:35:35.210Z,66.12
2019-02-19T01:38:01.090Z,66.11
2019-02-19T01:40:26.958Z,65.92
2019-02-19T01:42:52.983Z,65.78
2019-02-19T01:45:19.085Z,66.06
2019-02-19T01:47:44.931Z,66.21
2019-02-19T01:50:11.049Z,65.89
2019-02-19T01:52:37.020Z,66.50
2019-02-19T01:55:05.345Z,66.21
2019-02-19T01:57:31.322Z,66.89
2019-02-19T01:59:57.236Z,66.89
2019-02-19T02:02:23.347Z,67.35
2019-02-19T02:04:49.249Z,67.04
2019-02-19T02:07:15.134Z,67.60
2019-02-19T02:09:41.068Z,67.24
2019-02-19T02:12:07.028Z,67.78
2019-02-19T02:14:32.907Z,67.34
2019-02-19T02:16:58.821Z,67.33
2019-02-19T02:19:24.981Z,67.59
2019-02-19T02:21:51.031Z,67.42
2019-02-19T02:24:16.926Z,67.14
2019-02-19T02:26:44.929Z,66.56
2019-02-19T02:29:10.957Z,66.24
2019-02-19T02:31:37.025Z,66.04
2019-02-19T02:34:02.911Z,66.18
2019-02-19T02:36:28.803Z,66.09
2019-02-19T02:38:54.783Z,66.13
2019-02-19T02:41:20.736Z,66.27
2019-02-19T02:43:46.804Z,66.63
2019-02-19T02:46:12.777Z,66.77
2019-02-19T02:48:38.670Z,66.61
2019-02-19T02:51:04.778Z,66.28
2019-02-19T02:53:30.658Z,65.74
2019-02-19T02:55:56.551Z,65.73
2019-02-19T02:58:22.525Z,65.73
2019-02-19T03:00:48.588Z,66.41
2019-02-19T03:03:14.459Z,67.14
2019-02-19T03:05:46.037Z,67.90
2019-02-19T03:08:12.094Z,67.79
2019-02-19T03:10:38.296Z,68.23
2019-02-19T03:13:04.287Z,67.74
2019-02-19T03:15:30.367Z,68.12
2019-02-19T03:17:56.241Z,68.07
2019-02-19T03:20:22.165Z,67.95
2019-02-19T03:22:48.045Z,67.56
2019-02-19T03:25:14.054Z,67.65
2019-02-19T03:27:40.005Z,67.54
2019-02-19T03:30:08.474Z,67.53
2019-02-19T03:32:34.367Z,67.47
2019-02-19T03:35:00.490Z,67.48
2019-02-19T03:37:26.506Z,67.48
2019-02-19T03:39:52.412Z,67.51
2019-02-19T03:42:18.402Z,67.32
2019-02-19T03:44:44.306Z,67.56
2019-02-19T03:47:10.217Z,67.29
2019-02-19T03:49:36.086Z,67.20
2019-02-19T03:52:01.959Z,66.90
2019-02-19T03:54:28.134Z,66.81
2019-02-19T03:56:54.143Z,67.04
2019-02-19T03:59:20.228Z,67.04
2019-02-19T04:01:46.359Z,67.06
2019-02-19T04:04:12.318Z,66.96
2019-02-19T04:06:38.194Z,67.60
2019-02-19T04:09:04.298Z,67.81
2019-02-19T04:11:30.315Z,68.22
2019-02-19T04:13:56.404Z,68.22
2019-02-19T04:16:22.285Z,67.95
2019-02-19T04:18:48.355Z,68.04
2019-02-19T04:21:18.254Z,67.67
2019-02-19T04:23:44.272Z,67.72
2019-02-19T04:26:10.287Z,68.21
2019-02-19T04:28:36.250Z,68.14
2019-02-19T04:31:02.261Z,67.78
2019-02-19T04:33:28.280Z,67.76
2019-02-19T04:35:54.255Z,67.64
2019-02-19T04:38:20.266Z,68.02
2019-02-19T04:40:46.386Z,67.98
2019-02-19T04:43:12.422Z,67.92
2019-02-19T04:45:38.430Z,67.54
2019-02-19T04:48:04.359Z,67.54
2019-02-19T04:50:30.316Z,67.74
2019-02-19T04:52:56.192Z,67.45
2019-02-19T04:55:22.250Z,67.05
2019-02-19T04:57:48.151Z,67.03
2019-02-19T05:00:14.226Z,67.03
2019-02-19T05:02:40.352Z,67.16
2019-02-19T05:05:06.444Z,67.31
2019-02-19T05:07:32.455Z,66.90
2019-02-19T05:09:58.490Z,67.50
2019-02-19T05:12:24.469Z,67.84
2019-02-19T05:14:50.379Z,67.43
2019-02-19T05:17:16.482Z,67.72
2019-02-19T05:19:42.403Z,67.69
2019-02-19T05:22:08.395Z,67.69
2019-02-19T05:24:34.392Z,67.65
2019-02-19T05:27:00.459Z,67.73
2019-02-19T05:29:26.523Z,67.94
2019-02-19T05:31:52.519Z,68.51
2019-02-19T05:34:18.371Z,68.51
2019-02-19T05:36:44.415Z,68.59
2019-02-19T05:39:10.417Z,68.71
2019-02-19T05:41:36.447Z,68.40
2019-02-19T05:44:02.537Z,68.12
2019-02-19T05:46:28.455Z,68.25
2019-02-19T05:48:54.414Z,68.25
2019-02-19T05:51:20.332Z,68.09
2019-02-19T05:53:46.233Z,68.71
2019-02-19T05:56:12.310Z,68.26
2019-02-19T05:58:38.204Z,68.61
2019-02-19T06:01:04.243Z,68.61
2019-02-19T06:03:30.141Z,68.42
2019-02-19T06:05:55.987Z,68.19
2019-02-19T06:08:21.942Z,68.37
2019-02-19T06:10:47.934Z,68.17
2019-02-19T06:13:13.943Z,68.23
2019-02-19T06:15:39.867Z,68.33
2019-02-19T06:18:05.746Z,68.61
2019-02-19T06:20:31.711Z,68.99
2019-02-19T06:22:57.704Z,68.85
2019-02-19T06:25:23.578Z,68.52
2019-02-19T06:27:49.710Z,68.58
2019-02-19T06:30:15.584Z,69.02
2019-02-19T06:32:41.443Z,68.66
2019-02-19T06:35:08.174Z,68.28
2019-02-19T06:37:34.168Z,68.16
2019-02-19T06:40:00.160Z,68.21
2019-02-19T06:42:26.317Z,68.21
2019-02-19T06:44:52.212Z,67.34
2019-02-19T06:47:18.264Z,67.34
2019-02-19T06:49:44.161Z,67.59
2019-02-19T06:52:10.195Z,67.59
2019-02-19T06:54:36.112Z,67.59
2019-02-19T06:57:01.976Z,67.29
2019-02-19T06:59:27.954Z,66.89
2019-02-19T07:01:58.821Z,67.12
2019-02-19T07:04:29.331Z,66.72
2019-02-19T07:06:55.427Z,66.14
2019-02-19T07:09:21.547Z,66.13
2019-02-19T07:11:47.534Z,66.13
2019-02-19T07:14:13.399Z,65.46
2019-02-19T07:16:39.309Z,64.96
2019-02-19T07:19:05.264Z,64.52
2019-02-19T07:21:31.176Z,63.55
2019-02-19T07:24:04.252Z,63.78
2019-02-19T07:26:25.129Z,63.78
2019-02-19T07:28:51.041Z,63.51
2019-02-19T07:31:18.863Z,64.05
2019-02-19T07:33:44.723Z,64.05
2019-02-19T07:36:10.739Z,64.29
2019-02-19T07:38:36.589Z,63.92
2019-02-19T07:41:02.718Z,63.34
2019-02-19T07:43:28.612Z,62.83
2019-02-19T07:45:54.500Z,62.26
2019-02-19T07:48:20.439Z,62.66
2019-02-19T07:50:46.315Z,62.97
2019-02-19T07:53:12.180Z,62.34
2019-02-19T07:55:38.260Z,62.82
2019-02-19T07:58:04.079Z,62.56
2019-02-19T08:00:29.957Z,62.85
2019-02-19T08:02:55.878Z,62.19
2019-02-19T08:05:21.881Z,61.69
2019-02-19T08:07:47.752Z,61.86
2019-02-19T08:10:13.746Z,61.66
2019-02-19T08:12:39.614Z,61.67
2019-02-19T08:15:08.538Z,60.69
2019-02-19T08:17:34.413Z,60.92
2019-02-19T08:20:00.499Z,60.45
2019-02-19T08:22:26.369Z,60.49
2019-02-19T08:24:52.297Z,59.71
2019-02-19T08:27:18.208Z,59.67
2019-02-19T08:29:44.097Z,59.42
2019-02-19T08:32:10.062Z,59.58
2019-02-19T08:34:35.973Z,59.35
2019-02-19T08:37:01.842Z,59.45
2019-02-19T08:39:27.801Z,59.02
2019-02-19T08:41:53.689Z,58.91
2019-02-19T08:44:19.564Z,58.56
2019-02-19T08:46:45.589Z,58.39
2019-02-19T08:49:11.465Z,58.27
2019-02-19T08:51:37.329Z,58.20
2019-02-19T08:54:03.435Z,57.68
2019-02-19T08:56:29.415Z,57.68
2019-02-19T08:58:55.276Z,57.80
2019-02-19T09:01:21.208Z,57.11
2019-02-19T09:03:47.299Z,57.61
2019-02-19T09:06:13.164Z,56.26
2019-02-19T09:08:39.149Z,56.98
2019-02-19T09:11:05.170Z,57.32
2019-02-19T09:13:31.168Z,57.12
2019-02-19T09:15:57.124Z,56.92
2019-02-19T09:18:22.996Z,56.76
2019-02-19T09:20:49.067Z,56.66
2019-02-19T09:23:15.063Z,56.59
2019-02-19T09:25:41.066Z,56.33
2019-02-19T09:28:06.953Z,56.07
2019-02-19T09:30:32.869Z,55.87
2019-02-19T09:32:59.019Z,55.84
2019-02-19T09:35:24.984Z,55.57
2019-02-19T09:37:50.829Z,55.38
2019-02-19T09:40:16.718Z,55.30
2019-02-19T09:42:42.612Z,55.07
2019-02-19T09:45:09.123Z,54.76
2019-02-19T09:47:35.094Z,54.89
2019-02-19T09:50:01.056Z,54.89
2019-02-19T09:52:26.994Z,55.00
2019-02-19T09:54:52.816Z,54.41
2019-02-19T09:57:18.728Z,53.92
2019-02-19T09:59:44.615Z,53.92
2019-02-19T10:02:10.494Z,54.23
2019-02-19T10:04:36.450Z,53.86
2019-02-19T10:07:02.430Z,53.64
2019-02-19T10:09:28.392Z,53.57
2019-02-19T10:11:54.404Z,53.18
2019-02-19T10:14:20.301Z,53.13
2019-02-19T10:16:46.188Z,53.06
2019-02-19T10:19:12.089Z,52.48
2019-02-19T10:21:37.963Z,52.64
2019-02-19T10:24:03.936Z,52.16
2019-02-19T10:26:33.424Z,52.49
2019-02-19T10:28:59.309Z,52.08
2019-02-19T10:31:25.291Z,52.30
2019-02-19T10:33:51.168Z,52.54
2019-02-19T10:36:17.243Z,52.26
2019-02-19T10:38:43.105Z,51.67
2019-02-19T10:41:08.998Z,51.45
2019-02-19T10:43:34.880Z,51.41
2019-02-19T10:46:00.929Z,51.37
2019-02-19T10:48:26.824Z,51.21
2019-02-19T10:50:52.705Z,51.28
2019-02-19T10:53:18.788Z,51.11
2019-02-19T10:55:44.794Z,50.99
2019-02-19T10:58:11.590Z,50.89
2019-02-19T11:00:37.731Z,50.78
2019-02-19T11:03:03.819Z,51.03
2019-02-19T11:05:29.686Z,50.72
2019-02-19T11:07:55.654Z,51.25
2019-02-19T11:10:21.652Z,50.85
2019-02-19T11:12:47.613Z,50.44
2019-02-19T11:15:14.254Z,50.60
2019-02-19T11:17:40.222Z,50.16
2019-02-19T11:20:15.215Z,49.99
2019-02-19T11:22:41.124Z,50.12
2019-02-19T11:25:09.945Z,49.99
2019-02-19T11:27:36.025Z,49.76
2019-02-19T11:30:03.570Z,49.35
2019-02-19T11:32:29.429Z,49.40
2019-02-19T11:34:55.295Z,49.90
2019-02-19T11:37:21.192Z,50.03
2019-02-19T11:39:47.054Z,49.29
2019-02-19T11:42:12.985Z,49.41
2019-02-19T11:44:38.878Z,49.16
2019-02-19T11:47:04.947Z,48.82
2019-02-19T11:49:30.836Z,49.15
2019-02-19T11:51:56.727Z,48.73
2019-02-19T11:54:22.717Z,48.87
2019-02-19T11:56:48.675Z,48.73
2019-02-19T11:59:14.581Z,48.16
2019-02-19T12:01:40.695Z,48.49
2019-02-19T12:04:06.675Z,48.13
2019-02-19T12:06:32.525Z,47.87
2019-02-19T12:08:58.511Z,47.24
2019-02-19T12:11:24.485Z,47.44
2019-02-19T12:13:50.531Z,47.31
2019-02-19T12:16:16.482Z,46.98
2019-02-19T12:18:46.139Z,42.50
2019-02-19T12:21:10.756Z,35.35
2019-02-19T12:23:36.659Z,30.86
2019-02-19T12:26:02.734Z,32.41
2019-02-19T12:28:28.886Z,31.63
2019-02-19T12:30:54.845Z,33.62
2019-02-19T12:33:20.788Z,32.93
2019-02-19T12:35:46.714Z,38.47
2019-02-19T12:38:12.702Z,40.68
2019-02-19T12:40:38.666Z,42.72
2019-02-19T12:43:04.636Z,41.67
2019-02-19T12:45:30.630Z,39.79
2019-02-19T12:47:56.675Z,38.00
2019-02-19T12:50:22.650Z,36.14
2019-02-19T12:52:48.545Z,35.48
2019-02-19T12:55:14.640Z,38.83
2019-02-19T12:57:40.510Z,31.61
2019-02-19T13:00:09.679Z,29.78
2019-02-19T13:02:35.663Z,30.45
2019-02-19T13:05:01.656Z,31.24
2019-02-19T13:07:27.549Z,29.41
2019-02-19T13:09:53.540Z,26.36
2019-02-19T13:12:19.535Z,22.58
2019-02-19T13:14:45.458Z,27.18
2019-02-19T13:17:11.522Z,25.44
2019-02-19T13:19:37.409Z,25.03
2019-02-19T13:22:03.432Z,26.01
2019-02-19T13:24:29.301Z,27.66
2019-02-19T13:26:55.164Z,28.41
2019-02-19T13:29:21.127Z,27.30
2019-02-19T13:31:47.007Z,26.18
2019-02-19T13:34:12.968Z,26.70
2019-02-19T13:36:38.876Z,27.29
2019-02-19T13:39:05.630Z,26.83
2019-02-19T13:41:31.600Z,25.46
2019-02-19T13:43:57.501Z,24.20
2019-02-19T13:46:23.494Z,26.47
2019-02-19T13:48:49.394Z,24.76
2019-02-19T13:51:15.432Z,23.21
2019-02-19T13:53:43.200Z,24.40
2019-02-19T13:56:09.113Z,28.26
2019-02-19T13:58:35.190Z,24.74
2019-02-19T14:01:01.050Z,20.62
2019-02-19T14:03:27.084Z,19.63
2019-02-19T14:05:53.076Z,26.70
2019-02-19T14:08:19.139Z,27.77
2019-02-19T14:10:45.127Z,27.23
2019-02-19T14:13:11.222Z,26.00
2019-02-19T14:15:38.994Z,26.06
2019-02-19T14:18:06.742Z,26.60
2019-02-19T14:20:52.949Z,26.21
2019-02-19T14:23:33.023Z,27.64
2019-02-19T14:26:17.626Z,25.79
2019-02-19T14:28:57.456Z,25.96
2019-02-19T14:31:28.247Z,27.94
2019-02-19T14:33:59.038Z,26.94
2019-02-19T14:36:29.720Z,23.70
2019-02-19T14:39:00.272Z,25.21
2019-02-19T14:41:33.769Z,28.29
2019-02-19T14:44:01.741Z,28.39
2019-02-19T14:46:35.352Z,29.53
2019-02-19T14:49:08.646Z,28.17
2019-02-19T14:51:42.543Z,26.87
2019-02-19T14:54:27.233Z,25.39
2019-02-19T14:57:00.895Z,25.69
2019-02-19T14:59:34.759Z,25.11
2019-02-19T15:02:05.065Z,25.78
2019-02-19T15:04:51.204Z,24.47
2019-02-19T15:07:30.931Z,29.38
2019-02-19T15:10:01.711Z,30.39
2019-02-19T15:12:41.770Z,26.81
2019-02-19T15:15:13.306Z,30.18
2019-02-19T15:17:41.172Z,27.56
2019-02-19T15:20:11.766Z,27.91
2019-02-19T15:22:42.522Z,27.64
2019-02-19T15:25:22.288Z,27.26
2019-02-19T15:28:06.563Z,26.23
2019-02-19T15:30:49.707Z,27.77
2019-02-19T15:33:32.853Z,33.17
2019-02-19T15:36:16.026Z,33.37
2019-02-19T15:38:58.905Z,37.74
2019-02-19T15:41:29.814Z,40.29
2019-02-19T15:44:09.835Z,40.61
2019-02-19T15:46:37.683Z,41.29
2019-02-19T15:49:05.663Z,41.90
2019-02-19T15:51:50.343Z,42.08
2019-02-19T15:54:18.136Z,42.02
2019-02-19T15:56:54.815Z,42.24
2019-02-19T15:59:31.889Z,42.23
2019-02-19T16:01:59.781Z,42.97
2019-02-19T16:04:39.612Z,43.15
2019-02-19T16:07:22.713Z,43.27
2019-02-19T16:09:56.464Z,43.94
2019-02-19T16:12:30.255Z,44.30
2019-02-19T16:14:58.003Z,44.28
2019-02-19T16:17:25.899Z,44.66
2019-02-19T16:19:57.287Z,44.73
2019-02-19T16:22:31.547Z,44.67
2019-02-19T16:24:59.456Z,45.02
2019-02-19T16:27:36.302Z,45.17
2019-02-19T16:30:06.944Z,45.20
2019-02-19T16:32:51.801Z,45.64
2019-02-19T16:35:31.665Z,45.76
2019-02-19T16:37:59.545Z,46.25
2019-02-19T16:40:33.328Z,46.33
2019-02-19T16:43:01.129Z,46.64
2019-02-19T16:45:45.832Z,47.07
2019-02-19T16:48:13.605Z,47.21
2019-02-19T16:50:47.451Z,47.41
2019-02-19T16:53:24.322Z,47.96
2019-02-19T16:56:04.192Z,48.49
2019-02-19T16:58:32.004Z,48.93
2019-02-19T17:00:59.790Z,49.22
2019-02-19T17:03:30.394Z,49.02
2019-02-19T17:05:58.327Z,48.94
2019-02-19T17:08:26.116Z,49.64
2019-02-19T17:10:59.781Z,49.59
2019-02-19T17:13:44.387Z,49.29
2019-02-19T17:16:17.920Z,50.32
2019-02-19T17:18:48.499Z,49.59
2019-02-19T17:21:34.591Z,50.76
2019-02-19T17:24:19.036Z,50.88
2019-02-19T17:26:49.566Z,52.25
2019-02-19T17:29:26.364Z,52.62
2019-02-19T17:31:54.130Z,53.71
2019-02-19T17:34:23.978Z,52.87
2019-02-19T17:36:54.858Z,52.84
2019-02-19T17:39:22.766Z,53.49
2019-02-19T17:41:50.512Z,53.79
2019-02-19T17:44:18.297Z,54.22
2019-02-19T17:46:55.049Z,54.38
2019-02-19T17:49:22.860Z,54.58
2019-02-19T17:51:53.310Z,55.03
2019-02-19T17:54:27.377Z,54.67
2019-02-19T17:56:57.973Z,55.39
2019-02-19T17:59:25.748Z,55.77
2019-02-19T18:02:10.365Z,55.78
2019-02-19T18:04:38.178Z,56.57
2019-02-19T18:07:16.109Z,56.66
2019-02-19T18:09:43.908Z,55.85
2019-02-19T18:12:28.548Z,56.50
2019-02-19T18:14:56.318Z,56.57
2019-02-19T18:17:30.127Z,57.60
2019-02-19T18:19:56.122Z,57.30
2019-02-19T18:22:21.976Z,57.99
2019-02-19T18:24:47.824Z,57.55
2019-02-19T18:27:13.703Z,57.67
2019-02-19T18:29:39.557Z,57.64
2019-02-19T18:32:05.548Z,58.76
2019-02-19T18:34:31.391Z,58.53
2019-02-19T18:37:00.703Z,59.04
2019-02-19T18:39:26.593Z,59.38
2019-02-19T18:41:52.560Z,59.46
2019-02-19T18:44:18.400Z,59.14
2019-02-19T18:46:44.345Z,60.15
2019-02-19T18:49:10.205Z,59.92
2019-02-19T18:51:36.141Z,59.53
2019-02-19T18:54:02.252Z,59.98
2019-02-19T18:56:28.110Z,59.87
2019-02-19T18:58:53.944Z,60.02
2019-02-19T19:01:19.799Z,60.14
2019-02-19T19:03:45.657Z,59.73
2019-02-19T19:06:11.557Z,60.21
2019-02-19T19:08:37.401Z,60.37
2019-02-19T19:11:03.357Z,60.20
2019-02-19T19:13:29.240Z,60.18
2019-02-19T19:15:55.090Z,60.69
2019-02-19T19:18:20.941Z,60.51
2019-02-19T19:20:46.918Z,61.01
2019-02-19T19:23:12.758Z,61.62
2019-02-19T19:25:38.629Z,61.27
2019-02-19T19:28:04.596Z,61.14
2019-02-19T19:30:30.449Z,60.92
2019-02-19T19:32:56.304Z,61.06
2019-02-19T19:35:22.170Z,61.98
2019-02-19T19:37:48.155Z,61.49
2019-02-19T19:40:14.029Z,61.99
2019-02-19T19:42:39.973Z,61.76
2019-02-19T19:45:08.486Z,61.63
2019-02-19T19:47:34.348Z,60.96
2019-02-19T19:50:00.215Z,61.58
2019-02-19T19:52:26.038Z,61.43
2019-02-19T19:54:51.931Z,61.29
2019-02-19T19:57:17.781Z,61.49
2019-02-19T19:59:43.619Z,61.25
2019-02-19T20:02:09.603Z,61.65
2019-02-19T20:04:35.560Z,61.40
2019-02-19T20:07:01.506Z,61.60
2019-02-19T20:09:27.368Z,61.52
2019-02-19T20:11:53.199Z,61.92
2019-02-19T20:14:20.552Z,61.96
2019-02-19T20:16:46.400Z,61.55
2019-02-19T20:19:12.266Z,61.83
2019-02-19T20:21:38.352Z,62.19
2019-02-19T20:24:04.662Z,61.99
2019-02-19T20:26:31.035Z,61.12
2019-02-19T20:28:57.463Z,61.43
2019-02-19T20:31:23.917Z,62.04
2019-02-19T20:33:50.547Z,62.53
2019-02-19T20:36:17.434Z,62.78
2019-02-19T20:38:44.471Z,62.74
2019-02-19T20:41:11.793Z,63.43
2019-02-19T20:43:39.039Z,63.19
2019-02-19T20:46:06.409Z,63.60
2019-02-19T20:48:33.771Z,62.92
2019-02-19T20:51:01.184Z,63.31
2019-02-19T20:53:29.008Z,63.53
2019-02-19T20:55:55.781Z,63.22
2019-02-19T20:58:22.716Z,63.31
2019-02-19T21:00:49.593Z,64.11
2019-02-19T21:03:16.035Z,63.97
2019-02-19T21:05:42.202Z,63.74
2019-02-19T21:08:08.414Z,64.25
2019-02-19T21:10:34.454Z,63.86
2019-02-19T21:13:00.386Z,64.14
2019-02-19T21:15:26.328Z,64.13
2019-02-19T21:17:52.276Z,64.92
2019-02-19T21:20:18.116Z,65.14
2019-02-19T21:22:44.101Z,64.80
2019-02-19T21:25:10.398Z,65.27
2019-02-19T21:27:36.251Z,65.68
2019-02-19T21:30:05.014Z,65.07
2019-02-19T21:32:30.894Z,65.55
2019-02-19T21:34:56.765Z,65.54
2019-02-19T21:37:25.867Z,66.14
2019-02-19T21:39:51.738Z,65.57
2019-02-19T21:42:18.476Z,65.15
2019-02-19T21:44:44.339Z,65.47
2019-02-19T21:47:10.268Z,65.66
2019-02-19T21:49:36.156Z,65.69
2019-02-19T21:52:02.037Z,65.20
2019-02-19T21:54:27.942Z,64.98
2019-02-19T21:56:53.847Z,65.18
2019-02-19T21:59:19.701Z,65.71
2019-02-19T22:01:45.593Z,65.45
2019-02-19T22:04:11.456Z,65.56
2019-02-19T22:06:37.290Z,65.56
2019-02-19T22:09:04.164Z,65.63
2019-02-19T22:11:30.046Z,64.98
2019-02-19T22:13:55.947Z,64.69
2019-02-19T22:16:21.835Z,64.71
2019-02-19T22:18:47.688Z,65.11
2019-02-19T22:21:18.686Z,65.57
2019-02-19T22:23:44.641Z,66.29
2019-02-19T22:26:10.669Z,66.28
2019-02-19T22:28:36.498Z,65.72
2019-02-19T22:31:02.335Z,66.31
2019-02-19T22:33:28.344Z,66.47
2019-02-19T22:35:54.196Z,66.49
2019-02-19T22:38:20.122Z,66.74
2019-02-19T22:40:54.823Z,66.45
2019-02-19T22:43:13.937Z,66.82
2019-02-19T22:45:39.904Z,67.08
2019-02-19T22:48:05.897Z,67.21
2019-02-19T22:50:31.752Z,67.60
2019-02-19T22:52:57.610Z,67.54
2019-02-19T22:55:28.097Z,68.33
2019-02-19T22:57:53.965Z,68.34
2019-02-19T23:00:46.663Z,68.32
2019-02-19T23:03:12.836Z,68.92
2019-02-19T23:05:38.796Z,68.82
2019-02-19T23:08:04.657Z,68.46
2019-02-19T23:10:30.776Z,69.02
2019-02-19T23:12:56.653Z,68.91
2019-02-19T23:15:22.563Z,69.13
2019-02-19T23:17:48.444Z,69.27
2019-02-19T23:20:14.402Z,69.66
2019-02-19T23:22:40.255Z,70.65
2019-02-19T23:25:06.390Z,71.07
2019-02-19T23:27:32.330Z,70.60
2019-02-19T23:29:58.190Z,70.37
2019-02-19T23:32:24.096Z,69.81
2019-02-19T23:34:52.076Z,70.24
2019-02-19T23:37:17.976Z,70.43
2019-02-19T23:39:47.828Z,69.83
2019-02-19T23:42:13.671Z,69.44
2019-02-19T23:44:39.560Z,69.15
2019-02-19T23:47:05.429Z,69.39
2019-02-19T23:49:31.373Z,69.18
2019-02-19T23:51:57.280Z,69.29
2019-02-19T23:54:23.147Z,69.37
2019-02-19T23:56:48.993Z,69.38
2019-02-19T23:59:14.884Z,69.91
